Time;durP1;ratioP1;P1;durP2;ratioP2;P2;SDS_P1;SDS_P2;PMS_P1;PMS_P2;Temp;Humidity;BMP_temperature;BMP_pressure;BME280_temperature;BME280_humidity;BME280_pressure;Samples;Min_cycle;Max_cycle;Signal;HPM_P1;HPM_P2
2024/01/28 00:01:39;;;;;;;19.00;9.33;;;-1.60;99.90;;;-2.87;100.00;99809.94;5123102;27;20455;-80
2024/01/28 00:04:06;;;;;;;16.13;9.67;;;-1.70;99.60;;;-2.81;100.00;99811.38;5127834;27;20508;-82
2024/01/28 00:06:35;;;;;;;17.33;8.93;;;-1.80;99.90;;;-2.91;100.00;99824.25;5126808;27;20479;-77
2024/01/28 00:09:03;;;;;;;14.07;9.77;;;-1.80;99.90;;;-2.95;100.00;99825.38;5150128;27;20461;-87
2024/01/28 00:11:30;;;;;;;16.87;9.60;;;-1.80;99.90;;;-3.04;100.00;99819.63;5143280;27;20454;-80
2024/01/28 00:13:58;;;;;;;15.23;9.30;;;-1.90;99.90;;;-3.06;100.00;99813.59;5134063;27;20921;-79
2024/01/28 00:16:26;;;;;;;14.07;9.00;;;-1.90;99.90;;;-3.14;100.00;99806.06;5153386;27;20447;-82
2024/01/28 00:18:57;;;;;;;13.63;9.00;;;-2.00;99.90;;;-2.92;100.00;99790.81;5143080;27;20450;-75
2024/01/28 00:21:25;;;;;;;13.10;8.43;;;-1.80;99.90;;;-2.70;100.00;99795.75;5164248;27;20787;-79
2024/01/28 00:23:55;;;;;;;16.10;9.20;;;-1.70;99.90;;;-2.82;100.00;99796.44;5132207;27;20443;-74
2024/01/28 00:26:23;;;;;;;18.10;9.03;;;-1.70;99.90;;;-3.05;100.00;99795.94;5157500;27;20467;-80
2024/01/28 00:28:50;;;;;;;14.23;9.00;;;-1.80;99.90;;;-3.09;100.00;99797.06;5150796;27;20460;-81
2024/01/28 00:31:18;;;;;;;10.97;7.57;;;-1.90;99.90;;;-2.99;100.00;99798.22;5142857;27;20882;-80
2024/01/28 00:33:45;;;;;;;15.20;8.60;;;-1.80;99.90;;;-3.16;100.00;99789.44;5149628;27;20439;-80
2024/01/28 00:36:16;;;;;;;10.20;7.87;;;-2.00;99.90;;;-3.16;100.00;99794.72;5148308;27;21094;-82
2024/01/28 00:38:43;;;;;;;14.23;9.30;;;-2.00;99.90;;;-3.05;100.00;99785.34;5143368;27;20991;-83
2024/01/28 00:41:22;;;;;;;13.63;9.20;;;-1.90;99.90;;;-3.09;100.00;99784.66;5140517;27;20456;-81
2024/01/28 00:43:49;;;;;;;20.43;8.83;;;-1.90;99.90;;;-3.10;100.00;99785.59;5131477;27;20526;-78
2024/01/28 00:46:17;;;;;;;13.30;9.00;;;-1.90;99.90;;;-3.11;100.00;99780.38;5150725;27;20505;-79
2024/01/28 00:48:46;;;;;;;17.23;8.63;;;-1.90;99.90;;;-3.60;100.00;99714.28;5152999;27;20558;-81
2024/01/28 00:51:14;;;;;;;13.43;8.20;;;-2.00;99.90;;;-3.04;100.00;99782.59;5151481;27;20451;-81
2024/01/28 00:53:41;;;;;;;12.10;8.77;;;-2.00;99.90;;;-3.18;100.00;99783.38;5141585;27;20451;-77
2024/01/28 00:56:08;;;;;;;18.10;8.43;;;-2.00;99.90;;;-3.43;100.00;99723.91;5129791;27;21051;-81
2024/01/28 00:58:38;;;;;;;17.87;7.97;;;-2.00;99.90;;;-3.15;100.00;99785.00;5119960;27;20473;-83
2024/01/28 01:01:05;;;;;;;16.90;8.07;;;-2.00;99.90;;;-3.04;100.00;99782.59;5118776;27;20447;-83
2024/01/28 01:03:33;;;;;;;11.70;7.30;;;-2.10;99.90;;;-3.06;100.00;99778.34;5147339;27;21025;-84
2024/01/28 01:06:00;;;;;;;18.60;7.97;;;-2.00;99.90;;;-3.10;100.00;99777.66;5150725;27;20481;-82
2024/01/28 01:08:28;;;;;;;15.93;7.90;;;-2.00;99.90;;;-3.08;100.00;99775.78;5139061;27;20446;-81
2024/01/28 01:10:55;;;;;;;11.67;7.60;;;-2.10;99.90;;;-3.04;100.00;99771.19;5127449;27;20457;-80
2024/01/28 01:13:22;;;;;;;15.27;9.00;;;-2.00;99.90;;;-2.94;100.00;99777.69;5137031;27;21260;-80
2024/01/28 01:15:51;;;;;;;12.07;9.13;;;-1.90;99.90;;;-2.89;100.00;99770.34;5155954;27;20457;-79
2024/01/28 01:18:18;;;;;;;12.30;8.67;;;-1.80;99.90;;;-2.92;100.00;99765.22;5158128;27;20464;-75
2024/01/28 01:20:45;;;;;;;13.63;8.37;;;-1.80;99.90;;;-3.02;100.00;99753.44;5142452;27;20453;-81
2024/01/28 01:23:13;;;;;;;16.43;9.10;;;-1.80;99.90;;;-2.97;100.00;99764.59;5134967;27;20552;-79
2024/01/28 01:25:40;;;;;;;14.30;8.03;;;-1.80;99.90;;;-2.97;100.00;99766.41;5166268;27;20480;-79
2024/01/28 01:28:08;;;;;;;14.03;8.80;;;-1.90;99.90;;;-3.02;100.00;99766.66;5130986;27;20449;-82
2024/01/28 01:30:35;;;;;;;16.43;8.80;;;-1.90;99.90;;;-3.02;100.00;99764.03;5146781;27;20446;-80
2024/01/28 01:33:04;;;;;;;12.37;8.80;;;-1.90;99.90;;;-3.08;100.00;99754.63;5129876;27;20435;-80
2024/01/28 01:35:31;;;;;;;19.37;8.90;;;-1.90;99.90;;;-3.04;100.00;99761.44;5134329;27;20941;-82
2024/01/28 01:37:58;;;;;;;13.70;7.60;;;-1.90;99.90;;;-3.04;100.00;99747.38;5153871;27;20456;-81
2024/01/28 01:40:25;;;;;;;18.40;10.13;;;-1.90;99.90;;;-3.00;100.00;99741.84;5167895;27;20438;-76
2024/01/28 01:42:53;;;;;;;15.60;8.60;;;-1.90;99.90;;;-3.09;100.00;99730.94;5158017;27;20474;-77
2024/01/28 01:45:20;;;;;;;15.47;8.50;;;-1.90;99.90;;;-3.13;100.00;99736.38;5142579;27;20461;-79
2024/01/28 01:47:48;;;;;;;22.13;9.40;;;-1.90;99.90;;;-3.11;100.00;99733.66;5157691;27;20454;-79
2024/01/28 01:50:17;;;;;;;17.23;7.93;;;-2.00;99.90;;;-3.08;100.00;99733.47;5151987;27;20458;-81
2024/01/28 01:52:45;;;;;;;17.83;8.23;;;-2.00;99.90;;;-3.52;100.00;99703.28;5141844;27;20455;-80
2024/01/28 01:55:13;;;;;;;13.50;7.80;;;-2.10;99.90;;;-3.27;100.00;99731.00;5146269;27;20456;-79
2024/01/28 01:57:43;;;;;;;15.47;8.40;;;-2.10;99.90;;;-3.13;100.00;99743.47;5128344;27;20463;-81
2024/01/28 02:00:14;;;;;;;14.90;8.53;;;-2.00;99.90;;;-3.22;100.00;99743.97;5128276;27;20448;-81
2024/01/28 02:02:45;;;;;;;17.00;7.90;;;-2.10;99.90;;;-3.16;100.00;99752.41;5148509;27;20491;-84
2024/01/28 02:05:13;;;;;;;13.80;8.73;;;-2.10;99.90;;;-3.17;100.00;99750.72;5147876;27;21059;-80
2024/01/28 02:07:41;;;;;;;18.70;7.90;;;-2.00;99.90;;;-3.14;100.00;99745.25;5144285;27;20462;-78
2024/01/28 02:10:10;;;;;;;17.50;8.40;;;-2.00;99.90;;;-3.24;100.00;99744.06;5143497;27;20481;-83
2024/01/28 02:12:38;;;;;;;17.63;8.23;;;-2.10;99.90;;;-3.31;100.00;99740.91;5120752;27;20446;-80
2024/01/28 02:15:07;;;;;;;14.90;7.57;;;-2.10;99.90;;;-3.17;100.00;99749.88;5144338;27;20507;-78
2024/01/28 02:17:34;;;;;;;13.07;8.27;;;-2.10;99.90;;;-3.15;100.00;99751.47;5135111;27;20494;-82
2024/01/28 02:20:05;;;;;;;11.50;7.30;;;-2.10;99.90;;;-3.09;100.00;99737.06;5145946;27;20447;-75
2024/01/28 02:22:32;;;;;;;19.13;7.50;;;-2.00;99.90;;;-3.06;100.00;99728.94;5126602;27;20506;-84
2024/01/28 02:25:03;;;;;;;13.30;8.47;;;-1.90;99.90;;;-3.17;100.00;99729.56;5125132;27;20977;-84
2024/01/28 02:27:30;;;;;;;11.77;7.80;;;-2.00;99.90;;;-3.30;100.00;99733.81;5118618;27;20553;-86
2024/01/28 02:29:58;;;;;;;16.97;7.80;;;-2.10;99.50;;;-3.21;100.00;99725.38;5121354;27;20466;-80
2024/01/28 02:32:25;;;;;;;11.83;7.10;;;-2.10;99.90;;;-3.51;100.00;99672.41;5149660;27;20656;-84
2024/01/28 02:34:52;;;;;;;14.53;7.90;;;-2.10;99.90;;;-3.35;100.00;99730.56;5144428;27;20872;-84
2024/01/28 02:37:19;;;;;;;13.00;6.33;;;-2.20;99.90;;;-3.16;100.00;99720.69;5146632;27;20459;-82
2024/01/28 02:39:46;;;;;;;10.47;7.10;;;-2.10;99.90;;;-3.47;100.00;99690.66;5144228;27;20448;-82
2024/01/28 02:42:15;;;;;;;12.53;7.67;;;-2.20;99.90;;;-3.37;100.00;99727.16;5122624;27;20451;-86
2024/01/28 02:44:43;;;;;;;9.67;6.70;;;-2.20;99.90;;;-3.44;100.00;99727.50;5123140;27;20453;-85
2024/01/28 02:47:11;;;;;;;11.27;6.40;;;-2.30;99.90;;;-3.42;100.00;99712.41;5136671;27;20478;-83
2024/01/28 02:49:38;;;;;;;17.43;7.40;;;-2.30;99.90;;;-3.35;100.00;99707.63;5122979;27;20454;-84
2024/01/28 02:52:07;;;;;;;8.90;6.33;;;-2.20;99.90;;;-3.26;100.00;99714.22;5142834;27;20461;-83
2024/01/28 02:54:35;;;;;;;11.50;6.57;;;-2.20;99.90;;;-3.24;100.00;99709.69;5125355;27;20454;-84
2024/01/28 02:57:03;;;;;;;17.50;7.40;;;-2.20;99.90;;;-3.21;100.00;99720.09;5144942;27;20455;-80
2024/01/28 02:59:31;;;;;;;11.50;7.40;;;-2.10;99.90;;;-3.18;100.00;99711.97;5147655;27;20458;-84
2024/01/28 03:02:00;;;;;;;9.97;6.47;;;-2.10;99.90;;;-3.17;100.00;99728.72;5126962;27;20460;-87
2024/01/28 03:04:28;;;;;;;11.73;6.93;;;-2.00;99.90;;;-3.17;100.00;99711.03;5130853;27;20457;-78
2024/01/28 03:06:55;;;;;;;17.33;6.97;;;-2.00;99.90;;;-3.23;100.00;99713.19;5140895;27;20472;-84
2024/01/28 03:09:22;;;;;;;19.67;7.50;;;-2.10;99.90;;;-3.38;100.00;99704.31;5146305;27;20529;-82
2024/01/28 03:11:50;;;;;;;11.20;7.00;;;-2.20;99.50;;;-3.31;100.00;99713.59;5145576;27;20449;-87
2024/01/28 03:14:17;;;;;;;11.10;6.97;;;-2.30;99.80;;;-3.37;100.00;99703.38;5121004;27;20444;-79
2024/01/28 03:16:46;;;;;;;12.50;6.43;;;-2.30;99.80;;;-3.53;100.00;99706.88;5125910;27;20844;-79
2024/01/28 03:19:13;;;;;;;10.07;6.30;;;-2.30;99.90;;;-3.47;100.00;99711.81;5146878;27;20538;-84
2024/01/28 03:21:40;;;;;;;10.77;6.47;;;-2.40;99.90;;;-3.45;100.00;99714.38;5147147;27;21106;-82
2024/01/28 03:24:08;;;;;;;11.57;6.77;;;-2.40;99.90;;;-3.54;100.00;99705.16;5135110;27;20708;-81
2024/01/28 03:26:35;;;;;;;13.90;7.37;;;-2.40;99.90;;;-3.44;100.00;99716.91;5130653;27;20524;-83
2024/01/28 03:29:04;;;;;;;9.03;6.90;;;-2.40;99.90;;;-3.52;100.00;99718.28;5140922;27;20464;-77
2024/01/28 03:31:31;;;;;;;12.30;6.17;;;-2.40;99.90;;;-3.64;100.00;99727.72;5153649;27;20523;-82
2024/01/28 03:34:00;;;;;;;8.67;6.17;;;-2.50;99.90;;;-3.49;100.00;99724.25;5146872;27;20460;-81
2024/01/28 03:36:27;;;;;;;19.03;6.90;;;-2.50;99.90;;;-3.36;100.00;99713.84;5131481;27;20455;-83
2024/01/28 03:38:55;;;;;;;12.00;5.80;;;-2.30;99.90;;;-3.33;100.00;99718.13;5140914;27;20463;-82
2024/01/28 03:41:22;;;;;;;9.53;5.60;;;-2.20;99.90;;;-3.44;100.00;99722.19;5121756;27;20455;-83
2024/01/28 03:43:49;;;;;;;13.07;6.57;;;-2.30;99.90;;;-3.39;100.00;99723.75;5126906;27;20457;-82
2024/01/28 03:46:17;;;;;;;11.37;6.27;;;-2.30;99.90;;;-3.26;100.00;99730.09;5143530;27;20477;-82
2024/01/28 03:48:44;;;;;;;13.93;6.40;;;-2.20;99.90;;;-3.22;100.00;99722.81;5129013;27;20451;-81
2024/01/28 03:51:13;;;;;;;10.07;6.10;;;-2.10;99.90;;;-3.18;100.00;99733.13;5142229;27;20516;-83
2024/01/28 03:53:41;;;;;;;27.53;7.70;;;-2.10;99.90;;;-3.17;100.00;99734.84;5132391;27;20449;-79
2024/01/28 03:56:09;;;;;;;16.03;6.00;;;-2.00;99.90;;;-3.20;100.00;99735.03;5152819;27;20460;-84
2024/01/28 03:58:37;;;;;;;10.10;7.10;;;-2.00;99.90;;;-3.19;100.00;99726.16;5148708;27;20461;-80
2024/01/28 04:01:04;;;;;;;10.90;6.63;;;-2.00;99.90;;;-3.15;100.00;99722.38;5151704;27;20497;-78
2024/01/28 04:03:31;;;;;;;11.00;6.73;;;-1.90;99.90;;;-3.10;100.00;99723.94;5143256;27;20458;-74
2024/01/28 04:05:59;;;;;;;16.13;7.33;;;-1.90;99.60;;;-3.08;100.00;99717.59;5152148;27;20464;-79
2024/01/28 04:08:28;;;;;;;9.10;6.37;;;-1.90;99.10;;;-3.11;100.00;99716.91;5126052;27;20454;-84
2024/01/28 04:10:55;;;;;;;11.87;6.80;;;-1.90;98.60;;;-3.19;100.00;99712.94;5152631;27;20462;-84
2024/01/28 04:13:23;;;;;;;9.03;5.70;;;-2.00;98.00;;;-3.24;100.00;99714.13;5151625;27;20520;-85
2024/01/28 04:15:51;;;;;;;10.57;5.53;;;-2.10;98.10;;;-3.26;100.00;99708.94;5146278;27;20446;-82
2024/01/28 04:18:18;;;;;;;7.77;5.57;;;-2.10;99.00;;;-3.13;100.00;99709.94;5141011;27;20434;-83
2024/01/28 04:20:46;;;;;;;6.80;5.20;;;-2.00;99.40;;;-3.10;100.00;99713.38;5133372;28;20455;-80
2024/01/28 04:23:14;;;;;;;12.70;6.40;;;-1.90;99.10;;;-3.10;100.00;99718.66;5145378;27;20459;-81
2024/01/28 04:25:43;;;;;;;11.87;6.33;;;-1.90;98.70;;;-3.59;100.00;99649.91;5136195;27;20506;-77
2024/01/28 04:28:10;;;;;;;16.40;6.10;;;-1.90;98.40;;;-3.10;100.00;99723.94;5168770;27;20491;-77
2024/01/28 04:30:38;;;;;;;11.87;6.47;;;-1.90;98.10;;;-3.16;100.00;99715.38;5163186;27;20529;-80
2024/01/28 04:33:05;;;;;;;12.83;6.20;;;-1.90;98.00;;;-3.24;100.00;99720.28;5134247;27;20452;-82
2024/01/28 04:35:33;;;;;;;12.20;7.87;;;-1.90;97.50;;;-3.30;100.00;99707.38;5130546;27;20456;-84
2024/01/28 04:38:00;;;;;;;11.90;6.20;;;-2.00;97.70;;;-3.21;100.00;99717.44;5148042;27;20495;-78
2024/01/28 04:40:28;;;;;;;16.77;6.33;;;-2.00;98.20;;;-3.24;100.00;99730.84;5157737;27;20447;-82
2024/01/28 04:42:56;;;;;;;16.47;6.20;;;-2.00;98.20;;;-3.20;100.00;99719.16;5134069;27;20449;-77
2024/01/28 04:45:24;;;;;;;9.63;5.60;;;-2.00;98.20;;;-3.24;100.00;99722.03;5154191;27;20537;-81
2024/01/28 04:47:51;;;;;;;10.20;6.90;;;-2.00;98.10;;;-3.65;100.00;99649.41;5143932;27;20467;-82
2024/01/28 04:50:18;;;;;;;12.60;6.77;;;-2.00;97.90;;;-3.29;100.00;99715.22;5151385;27;20543;-80
2024/01/28 04:52:45;;;;;;;14.10;6.70;;;-2.00;97.80;;;-3.29;100.00;99709.06;5143467;27;20452;-76
2024/01/28 04:55:20;;;;;;;10.97;6.23;;;-2.00;98.00;;;-3.35;100.00;99704.16;5145205;27;20446;-82
2024/01/28 04:57:47;;;;;;;7.90;6.33;;;-2.00;97.80;;;-3.35;100.00;99710.25;5137062;27;20469;-85
2024/01/28 05:00:17;;;;;;;15.13;6.73;;;-2.10;97.80;;;-3.34;100.00;99719.91;5146428;27;20460;-83
2024/01/28 05:02:44;;;;;;;10.10;7.00;;;-2.10;97.60;;;-3.29;100.00;99723.16;5144350;27;20524;-80
2024/01/28 05:05:12;;;;;;;11.97;6.07;;;-2.10;98.20;;;-3.27;100.00;99723.06;5118387;27;20494;-86
2024/01/28 05:07:39;;;;;;;11.17;6.50;;;-2.00;98.50;;;-3.25;100.00;99723.00;5127292;27;20479;-85
2024/01/28 05:10:09;;;;;;;11.37;7.20;;;-2.00;98.20;;;-3.29;100.00;99719.66;5142105;27;20455;-85
2024/01/28 05:12:36;;;;;;;10.23;6.73;;;-2.10;97.80;;;-3.46;100.00;99692.38;5140607;27;20453;-85
2024/01/28 05:15:06;;;;;;;12.13;6.10;;;-2.10;98.00;;;-3.26;100.00;99714.22;5132026;27;20459;-74
2024/01/28 05:17:36;;;;;;;13.97;6.80;;;-2.10;98.00;;;-3.24;100.00;99716.75;5141062;27;20533;-83
2024/01/28 05:20:08;;;;;;;14.83;7.40;;;-2.10;98.00;;;-3.32;100.00;99725.13;5127277;27;20446;-77
2024/01/28 05:22:36;;;;;;;12.77;7.00;;;-2.20;97.80;;;-3.29;100.00;99720.53;5145040;27;20454;-81
2024/01/28 05:25:04;;;;;;;13.17;5.83;;;-2.10;98.20;;;-3.28;100.00;99722.22;5142444;27;20452;-82
2024/01/28 05:27:31;;;;;;;11.00;7.30;;;-2.20;98.10;;;-3.30;100.00;99724.09;5123690;27;20479;-82
2024/01/28 05:29:59;;;;;;;12.87;6.27;;;-2.10;97.80;;;-3.30;100.00;99718.81;5140471;27;20442;-86
2024/01/28 05:32:26;;;;;;;10.00;5.90;;;-2.10;97.70;;;-3.43;100.00;99702.75;5131832;27;21030;-81
2024/01/28 05:34:56;;;;;;;13.53;6.30;;;-2.10;97.40;;;-3.32;100.00;99714.53;5136634;27;20814;-81
2024/01/28 05:37:24;;;;;;;14.50;7.10;;;-2.10;97.30;;;-3.45;100.00;99715.22;5128495;27;20483;-81
2024/01/28 05:39:51;;;;;;;14.33;7.13;;;-2.10;97.00;;;-3.37;100.00;99714.78;5139988;27;21094;-84
2024/01/28 05:42:18;;;;;;;15.00;7.00;;;-2.10;97.20;;;-3.34;100.00;99716.41;5141435;27;20470;-82
2024/01/28 05:44:45;;;;;;;9.33;7.37;;;-2.10;97.20;;;-3.35;100.00;99714.72;5140241;27;20450;-78
2024/01/28 05:47:12;;;;;;;10.03;6.37;;;-2.10;97.10;;;-3.36;100.00;99707.72;5141490;27;20476;-83
2024/01/28 05:49:40;;;;;;;11.63;7.30;;;-2.10;97.30;;;-3.24;100.00;99709.69;5136197;27;20459;-85
2024/01/28 05:52:08;;;;;;;15.10;8.50;;;-2.10;97.20;;;-3.33;100.00;99718.13;5124991;27;20917;-84
2024/01/28 05:54:41;;;;;;;9.87;6.50;;;-2.10;96.70;;;-3.38;100.00;99709.59;5118364;27;20450;-84
2024/01/28 05:57:09;;;;;;;16.40;8.40;;;-2.20;96.80;;;-3.38;100.00;99704.31;5146376;27;20578;-80
2024/01/28 05:59:37;;;;;;;11.80;7.00;;;-2.20;97.20;;;-3.33;100.00;99716.34;5145896;27;20442;-83
2024/01/28 06:02:05;;;;;;;11.43;7.10;;;-2.20;97.20;;;-3.33;100.00;99719.00;5138152;27;20462;-78
2024/01/28 06:04:32;;;;;;;13.80;6.83;;;-2.20;97.50;;;-3.28;100.00;99710.78;5125837;27;20460;-79
2024/01/28 06:07:00;;;;;;;16.73;7.27;;;-2.10;97.90;;;-3.44;100.00;99689.66;5149187;27;20507;-83
2024/01/28 06:09:30;;;;;;;15.73;7.67;;;-2.20;97.40;;;-3.35;100.00;99714.72;5142683;27;20522;-79
2024/01/28 06:11:57;;;;;;;12.03;7.43;;;-2.20;97.20;;;-3.36;100.00;99718.31;5142662;27;20968;-81
2024/01/28 06:14:25;;;;;;;14.40;8.40;;;-2.20;97.50;;;-3.38;100.00;99714.91;5131615;27;20459;-82
2024/01/28 06:16:53;;;;;;;11.17;6.90;;;-2.20;97.30;;;-3.39;100.00;99703.44;5155917;27;20844;-75
2024/01/28 06:19:20;;;;;;;14.80;8.37;;;-2.20;97.60;;;-3.37;100.00;99698.94;5154335;27;20445;-78
2024/01/28 06:21:48;;;;;;;16.97;8.03;;;-2.20;97.30;;;-3.42;100.00;99704.47;5155805;27;20480;-80
2024/01/28 06:24:15;;;;;;;12.40;7.37;;;-2.20;97.40;;;-3.48;100.00;99696.88;5119850;27;20468;-70
2024/01/28 06:26:44;;;;;;;10.63;7.70;;;-2.30;97.20;;;-3.24;100.00;99685.03;5111337;27;20451;-72
2024/01/28 06:29:12;;;;;;;14.03;7.87;;;-2.10;98.60;;;-3.20;100.00;99692.72;5127097;27;20551;-71
2024/01/28 06:31:41;;;;;;;13.90;8.10;;;-2.10;98.00;;;-3.25;100.00;99689.47;5135984;27;20442;-71
2024/01/28 06:34:09;;;;;;;15.50;8.53;;;-2.10;97.80;;;-3.06;100.00;99691.91;5139585;27;20501;-71
2024/01/28 06:36:36;;;;;;;15.23;7.10;;;-2.00;98.50;;;-3.13;100.00;99693.22;5143014;27;20486;-70
2024/01/28 06:39:03;;;;;;;15.70;8.50;;;-1.90;97.80;;;-3.07;100.00;99695.50;5119021;27;20462;-71
2024/01/28 06:41:32;;;;;;;12.40;7.87;;;-1.90;97.70;;;-3.58;100.00;99616.41;5125231;27;20455;-70
2024/01/28 06:44:02;;;;;;;13.27;6.47;;;-1.90;97.40;;;-3.31;100.00;99652.78;5121489;27;20468;-72
2024/01/28 06:46:30;;;;;;;19.00;8.33;;;-1.90;97.10;;;-2.95;100.00;99693.97;5136129;27;20950;-71
2024/01/28 06:48:59;;;;;;;10.80;7.50;;;-1.80;97.50;;;-3.01;100.00;99700.47;5138513;27;20486;-70
2024/01/28 06:51:28;;;;;;;12.07;7.70;;;-1.80;96.70;;;-3.06;100.00;99688.44;5139297;27;20452;-70
2024/01/28 06:53:57;;;;;;;13.93;7.60;;;-1.90;96.30;;;-2.91;100.00;99689.34;5121521;27;20833;-70
2024/01/28 06:56:25;;;;;;;12.80;7.53;;;-1.80;96.70;;;-2.96;100.00;99694.88;5121030;27;22054;-71
2024/01/28 06:58:52;;;;;;;12.33;8.47;;;-1.80;96.20;;;-2.90;100.00;99694.56;5141626;27;20880;-70
2024/01/28 07:01:22;;;;;;;25.73;9.57;;;-1.70;96.00;;;-2.78;100.00;99694.78;5137765;27;20546;-68
2024/01/28 07:03:50;;;;;;;16.50;8.37;;;-1.70;96.20;;;-2.75;100.00;99687.50;5121703;27;20810;-70
2024/01/28 07:06:18;;;;;;;13.07;8.50;;;-1.60;96.00;;;-2.88;100.00;99692.66;5138315;27;20454;-71
2024/01/28 07:08:45;;;;;;;15.07;8.00;;;-1.70;95.40;;;-2.78;100.00;99697.44;5136408;27;20502;-69
2024/01/28 07:11:12;;;;;;;16.00;8.20;;;-1.70;95.50;;;-2.73;100.00;99698.00;5114266;27;20974;-71
2024/01/28 07:13:41;;;;;;;15.63;7.63;;;-1.70;95.60;;;-2.69;100.00;99696.88;5136794;27;20454;-71
2024/01/28 07:16:09;;;;;;;12.60;7.90;;;-1.70;95.80;;;-2.72;100.00;99694.44;5117226;27;20459;-70
2024/01/28 07:18:37;;;;;;;13.23;8.47;;;-1.70;95.70;;;-2.69;100.00;99696.88;5120678;27;20820;-71
2024/01/28 07:21:06;;;;;;;10.60;7.00;;;-1.70;95.90;;;-2.66;100.00;99702.00;5134663;27;21265;-72
2024/01/28 07:23:33;;;;;;;15.57;7.97;;;-1.70;96.30;;;-2.65;100.00;99703.72;5115680;27;20645;-70
2024/01/28 07:26:01;;;;;;;14.93;8.50;;;-1.70;96.10;;;-2.60;100.00;99696.38;5137620;27;20465;-71
2024/01/28 07:28:31;;;;;;;15.90;8.40;;;-1.60;96.20;;;-2.56;100.00;99697.88;5112086;27;20934;-71
2024/01/28 07:31:01;;;;;;;11.73;7.70;;;-1.60;96.40;;;-2.53;100.00;99696.00;5135666;27;20533;-71
2024/01/28 07:33:29;;;;;;;12.00;8.23;;;-1.60;96.20;;;-2.52;100.00;99692.41;5135699;27;20455;-71
2024/01/28 07:35:59;;;;;;;17.00;8.33;;;-1.60;96.00;;;-2.61;100.00;99683.22;5141890;27;20457;-71
2024/01/28 07:38:29;;;;;;;12.80;8.20;;;-1.60;95.80;;;-2.53;100.00;99685.41;5139239;27;20481;-71
2024/01/28 07:40:58;;;;;;;17.20;8.87;;;-1.60;96.20;;;-2.64;100.00;99673.66;5140451;27;20945;-72
2024/01/28 07:43:26;;;;;;;15.03;8.90;;;-1.60;96.60;;;-2.49;100.00;99686.94;5131221;27;20528;-71
2024/01/28 07:45:55;;;;;;;12.97;9.03;;;-1.50;97.00;;;-2.45;100.00;99672.56;5115833;27;20449;-71
2024/01/28 07:48:25;;;;;;;12.23;9.13;;;-1.40;97.50;;;-2.33;100.00;99682.44;5121116;27;20470;-71
2024/01/28 07:50:54;;;;;;;13.80;8.87;;;-1.40;97.10;;;-2.45;100.00;99624.91;5120091;27;20468;-76
2024/01/28 07:53:25;;;;;;;13.90;8.80;;;-1.30;97.50;;;-2.16;99.75;99672.63;5141403;27;20541;-72
2024/01/28 07:55:53;;;;;;;12.73;9.07;;;-1.20;97.20;;;-1.96;99.52;99674.06;5115784;28;20448;-69
2024/01/28 07:58:21;;;;;;;12.30;9.10;;;-1.10;97.20;;;-2.06;98.87;99670.25;5136785;27;20461;-70
2024/01/28 08:00:49;;;;;;;15.93;9.10;;;-1.00;96.20;;;-2.00;98.99;99669.88;5138701;27;20463;-70
2024/01/28 08:03:16;;;;;;;14.40;9.47;;;-1.00;95.60;;;-1.98;99.50;99670.63;5116098;27;20464;-71
2024/01/28 08:05:43;;;;;;;25.13;9.27;;;-1.00;95.60;;;-1.95;99.77;99669.59;5121851;27;20450;-71
2024/01/28 08:08:13;;;;;;;14.00;9.93;;;-1.00;95.60;;;-1.86;99.50;99663.72;5122616;27;20567;-75
2024/01/28 08:10:43;;;;;;;25.83;10.30;;;-0.90;96.00;;;-1.83;99.33;99665.31;5114352;27;20790;-72
2024/01/28 08:13:10;;;;;;;14.60;10.27;;;-0.90;96.20;;;-1.81;99.79;99669.59;5126389;27;20467;-70
2024/01/28 08:15:38;;;;;;;15.10;9.67;;;-0.90;95.70;;;-1.63;100.00;99670.25;5145780;27;20455;-71
2024/01/28 08:18:06;;;;;;;14.27;9.77;;;-0.80;96.10;;;-1.52;98.29;99672.22;5146642;27;21010;-74
2024/01/28 08:20:37;;;;;;;15.10;10.60;;;-0.60;96.10;;;-1.45;98.90;99673.50;5145943;27;21046;-70
2024/01/28 08:23:16;;;;;;;15.43;9.27;;;-0.60;95.50;;;-1.40;98.10;99664.44;5149975;27;20453;-72
2024/01/28 08:25:46;;;;;;;12.67;9.03;;;-0.50;95.40;;;-1.34;97.28;99667.53;5147161;27;20496;-74
2024/01/28 08:28:14;;;;;;;15.90;9.30;;;-0.40;94.60;;;-1.31;96.64;99663.81;5134656;27;20527;-74
2024/01/28 08:30:43;;;;;;;17.97;10.60;;;-0.30;93.60;;;-1.15;97.36;99672.47;5127284;27;20541;-72
2024/01/28 08:33:11;;;;;;;17.17;9.70;;;-0.30;93.60;;;-1.06;96.73;99668.41;5134895;27;20591;-73
2024/01/28 08:35:38;;;;;;;14.17;9.63;;;-0.20;93.40;;;-1.00;96.10;99667.13;5147297;27;20471;-72
2024/01/28 08:38:06;;;;;;;16.07;9.83;;;-0.10;93.40;;;-0.92;95.39;99672.78;5144371;27;20448;-72
2024/01/28 08:40:33;;;;;;;11.90;9.30;;;0.00;92.70;;;-0.92;94.60;99648.91;5159783;27;20483;-73
2024/01/28 08:43:05;;;;;;;15.10;10.40;;;0.10;92.30;;;-0.78;94.85;99665.72;5154429;27;20478;-81
2024/01/28 08:45:32;;;;;;;12.77;9.63;;;0.20;91.80;;;-0.72;94.80;99675.91;5147590;27;20459;-70
2024/01/28 08:48:00;;;;;;;19.13;9.70;;;0.30;91.50;;;-0.69;94.13;99677.53;5147948;27;20471;-71
2024/01/28 08:50:27;;;;;;;15.80;9.60;;;0.30;91.00;;;-0.47;94.44;99672.47;5124274;27;20524;-71
2024/01/28 08:52:55;;;;;;;15.57;9.60;;;0.40;91.20;;;-0.40;94.29;99678.22;5117706;27;20906;-71
2024/01/28 08:55:23;;;;;;;16.17;9.63;;;0.50;91.10;;;-0.36;94.39;99665.59;5145641;27;20551;-72
2024/01/28 08:57:50;;;;;;;17.30;10.20;;;0.50;91.30;;;-0.27;93.49;99669.41;5108802;27;20948;-71
2024/01/28 09:00:21;;;;;;;13.10;9.00;;;0.60;90.90;;;-0.12;92.72;99675.50;5147379;27;20463;-71
2024/01/28 09:02:49;;;;;;;13.97;9.93;;;0.80;90.70;;;-0.08;92.23;99680.47;5132544;27;20478;-73
2024/01/28 09:05:17;;;;;;;12.50;8.87;;;0.90;90.30;;;-0.12;92.89;99654.22;5121147;27;20550;-72
2024/01/28 09:07:45;;;;;;;11.70;8.17;;;0.90;90.10;;;0.04;91.83;99667.28;5140475;27;20464;-71
2024/01/28 09:10:13;;;;;;;13.73;9.60;;;1.00;89.50;;;0.13;91.74;99671.97;5122824;27;21409;-73
2024/01/28 09:12:41;;;;;;;15.07;9.30;;;1.10;89.30;;;0.18;91.53;99666.34;5127829;27;20460;-72
2024/01/28 09:15:09;;;;;;;11.80;8.67;;;1.10;88.90;;;0.24;90.72;99677.38;5145165;27;20463;-71
2024/01/28 09:17:39;;;;;;;14.40;9.13;;;1.20;88.20;;;0.43;90.83;99681.41;5124351;27;20452;-72
2024/01/28 09:20:08;;;;;;;12.80;9.60;;;1.30;88.20;;;0.57;89.74;99672.41;5138797;27;20460;-71
2024/01/28 09:22:37;;;;;;;19.17;10.37;;;1.50;87.80;;;0.52;88.69;99678.06;5120790;27;20455;-71
2024/01/28 09:25:09;;;;;;;13.93;9.10;;;1.50;86.70;;;0.72;88.90;99678.44;5143601;27;20459;-71
2024/01/28 09:27:36;;;;;;;12.77;9.50;;;1.60;86.30;;;0.87;88.46;99676.47;5143290;27;20486;-71
2024/01/28 09:30:08;;;;;;;18.23;9.13;;;1.80;86.60;;;0.97;88.68;99666.00;5137404;27;20470;-85
2024/01/28 09:32:36;;;;;;;13.50;9.03;;;1.80;86.90;;;1.09;87.80;99670.41;5115999;27;20456;-72
2024/01/28 09:35:07;;;;;;;11.10;7.80;;;2.00;86.60;;;1.25;86.79;99674.59;5125715;27;20452;-70
2024/01/28 09:37:36;;;;;;;10.73;8.30;;;2.10;85.70;;;1.19;86.21;99681.22;5125339;27;20450;-70
2024/01/28 09:40:05;;;;;;;17.33;8.77;;;2.10;84.20;;;1.37;86.09;99679.00;5144685;27;20450;-72
2024/01/28 09:42:48;;;;;;;12.27;8.10;;;2.20;84.30;;;1.65;85.42;99681.38;5138895;27;21311;-71
2024/01/28 09:45:17;;;;;;;10.30;7.20;;;2.40;84.30;;;1.68;83.98;99675.84;5133487;27;20803;-72
2024/01/28 09:47:51;;;;;;;14.00;7.80;;;2.50;83.10;;;1.78;84.62;99679.47;5137489;27;20548;-71
2024/01/28 09:50:24;;;;;;;13.80;7.60;;;2.60;83.00;;;1.92;82.91;99666.91;5138603;27;20479;-71
2024/01/28 09:52:53;;;;;;;9.83;6.57;;;2.70;83.20;;;1.92;83.00;99651.78;5138482;27;20463;-72
2024/01/28 09:55:21;;;;;;;10.03;7.53;;;2.80;82.80;;;2.17;81.27;99673.81;5134933;27;20451;-73
2024/01/28 09:57:50;;;;;;;8.63;6.10;;;3.00;81.70;;;2.19;79.91;99668.38;5117831;27;20535;-73
2024/01/28 10:00:21;;;;;;;8.93;6.33;;;3.10;80.50;;;2.32;79.76;99673.59;5140722;27;20466;-72
2024/01/28 10:02:51;;;;;;;12.47;6.70;;;3.30;79.90;;;2.40;79.00;99668.50;5127900;27;20466;-73
2024/01/28 10:05:21;;;;;;;11.23;6.70;;;3.30;79.90;;;2.60;77.90;99674.06;5113290;27;20451;-71
2024/01/28 10:07:58;;;;;;;6.30;5.23;;;3.40;79.50;;;2.57;77.16;99685.81;5138770;27;20453;-72
2024/01/28 10:10:26;;;;;;;7.80;6.00;;;3.50;78.70;;;2.68;76.38;99679.63;5135979;27;20576;-72
2024/01/28 10:12:53;;;;;;;7.30;5.70;;;3.60;77.90;;;2.82;75.85;99682.03;5120256;27;20444;-71
2024/01/28 10:15:21;;;;;;;10.47;6.00;;;3.70;77.70;;;2.91;75.65;99674.25;5138525;27;20456;-73